Time;durP1;ratioP1;P1;durP2;ratioP2;P2;SDS_P1;SDS_P2;PMS_P1;PMS_P2;Temp;Humidity;BMP_temperature;BMP_pressure;BME280_temperature;BME280_humidity;BME280_pressure;Samples;Min_cycle;Max_cycle;Signal;HPM_P1;HPM_P2
2024/01/01 00:02:01;;;;;;;70.85;45.97;;;7.50;99.90;;;;;;5012325;28;20037;-63
2024/01/01 00:04:29;;;;;;;48.00;32.13;;;7.50;99.90;;;;;;5027841;28;20088;-62
2024/01/01 00:06:55;;;;;;;59.22;40.17;;;7.50;99.90;;;;;;5031574;28;20068;-63
2024/01/01 00:09:21;;;;;;;38.60;25.55;;;7.50;99.90;;;;;;5031697;28;20091;-63
2024/01/01 00:11:47;;;;;;;38.80;23.00;;;7.40;99.90;;;;;;5029083;28;20033;-63
2024/01/01 00:14:13;;;;;;;45.97;28.63;;;7.50;99.90;;;;;;5011151;28;20037;-63
2024/01/01 00:16:40;;;;;;;48.10;25.85;;;7.50;99.90;;;;;;5028905;28;20047;-63
2024/01/01 00:19:07;;;;;;;50.72;33.53;;;7.40;99.90;;;;;;5033928;28;20509;-62
2024/01/01 00:21:32;;;;;;;35.25;19.50;;;7.40;99.90;;;;;;5033984;28;20090;-62
2024/01/01 00:24:00;;;;;;;33.80;16.15;;;7.40;99.90;;;;;;5034507;28;20041;-62
2024/01/01 00:26:28;;;;;;;27.63;17.42;;;7.50;99.90;;;;;;5033798;28;20107;-63
2024/01/01 00:28:54;;;;;;;38.25;25.48;;;7.50;99.90;;;;;;5034050;28;20098;-62
2024/01/01 00:31:21;;;;;;;30.38;18.00;;;7.50;99.90;;;;;;5034101;28;20040;-62
2024/01/01 00:33:46;;;;;;;28.83;19.98;;;7.40;99.90;;;;;;5014525;28;20051;-62
2024/01/01 00:36:14;;;;;;;27.27;16.67;;;7.40;99.90;;;;;;5014087;28;20116;-62
2024/01/01 00:38:40;;;;;;;23.38;12.95;;;7.40;99.90;;;;;;5014315;28;20133;-62
2024/01/01 00:41:06;;;;;;;15.85;9.68;;;7.30;99.90;;;;;;5014170;28;20128;-62
2024/01/01 00:43:33;;;;;;;15.70;9.57;;;7.40;99.90;;;;;;5014228;28;20049;-62
2024/01/01 00:46:00;;;;;;;13.63;6.55;;;7.30;99.90;;;;;;5014958;28;20055;-62
2024/01/01 00:48:26;;;;;;;9.98;5.57;;;7.30;99.90;;;;;;5013372;28;20041;-62
2024/01/01 00:50:52;;;;;;;9.68;5.40;;;7.30;99.90;;;;;;5014211;28;20087;-62
2024/01/01 00:53:18;;;;;;;17.58;8.10;;;7.30;99.90;;;;;;5014189;28;20041;-62
2024/01/01 00:55:44;;;;;;;18.08;10.13;;;7.30;99.90;;;;;;5013293;28;20118;-62
2024/01/01 00:58:10;;;;;;;14.63;7.22;;;7.30;99.90;;;;;;4998211;28;20040;-62
2024/01/01 01:00:36;;;;;;;27.17;20.15;;;7.30;99.90;;;;;;5014550;28;20127;-62
2024/01/01 01:03:01;;;;;;;52.13;39.33;;;7.40;99.90;;;;;;5013408;28;20053;-63
2024/01/01 01:05:29;;;;;;;53.22;41.03;;;7.40;99.90;;;;;;5014301;28;20064;-62
2024/01/01 01:07:56;;;;;;;50.67;31.77;;;7.40;99.90;;;;;;5014643;28;20054;-62
2024/01/01 01:10:24;;;;;;;29.33;19.00;;;7.40;99.90;;;;;;5014351;28;20522;-63
2024/01/01 01:12:53;;;;;;;28.30;17.65;;;7.40;99.90;;;;;;5013969;28;20045;-63
2024/01/01 01:15:19;;;;;;;26.38;16.05;;;7.40;99.90;;;;;;5013438;28;20496;-63
2024/01/01 01:17:45;;;;;;;31.58;17.58;;;7.40;99.90;;;;;;5031700;28;20642;-63
2024/01/01 01:20:13;;;;;;;31.88;20.13;;;7.40;99.90;;;;;;5014042;28;20155;-62
2024/01/01 01:22:41;;;;;;;39.90;22.65;;;7.40;99.90;;;;;;5013582;28;20084;-63
2024/01/01 01:25:10;;;;;;;42.83;22.80;;;7.40;99.90;;;;;;5014073;28;20037;-63
2024/01/01 01:27:36;;;;;;;42.22;25.67;;;7.40;99.90;;;;;;5013910;28;20120;-62
2024/01/01 01:30:02;;;;;;;38.92;24.48;;;7.40;99.90;;;;;;5013239;28;20461;-63
2024/01/01 01:32:30;;;;;;;38.45;23.02;;;7.50;99.90;;;;;;5013800;28;20044;-62
2024/01/01 01:34:57;;;;;;;41.50;27.58;;;7.50;99.90;;;;;;5014723;28;20140;-63
2024/01/01 01:37:23;;;;;;;44.08;26.17;;;7.50;99.90;;;;;;5030715;28;20394;-63
2024/01/01 01:39:49;;;;;;;37.95;24.33;;;7.50;99.90;;;;;;5038066;28;20049;-63
2024/01/01 01:42:17;;;;;;;41.53;25.00;;;7.50;99.90;;;;;;5033539;28;20545;-63
2024/01/01 01:44:43;;;;;;;41.95;25.52;;;7.50;99.90;;;;;;5032650;28;20049;-63
2024/01/01 01:47:12;;;;;;;37.17;24.13;;;7.50;99.90;;;;;;5050965;28;20044;-63
2024/01/01 01:49:39;;;;;;;48.38;27.40;;;7.50;99.90;;;;;;5051159;28;20132;-62
2024/01/01 01:52:07;;;;;;;36.28;25.65;;;7.50;99.90;;;;;;5032968;28;20045;-62
2024/01/01 01:54:36;;;;;;;38.20;25.48;;;7.60;99.90;;;;;;5032677;28;20048;-63
2024/01/01 01:57:03;;;;;;;43.05;25.00;;;7.60;99.90;;;;;;5033921;28;20033;-62
2024/01/01 01:59:29;;;;;;;39.58;25.60;;;7.50;99.90;;;;;;5035262;28;20041;-63
2024/01/01 02:01:56;;;;;;;41.33;27.08;;;7.50;99.90;;;;;;5037322;28;20053;-63
2024/01/01 02:04:24;;;;;;;40.20;25.38;;;7.50;99.90;;;;;;5035099;28;20060;-63
2024/01/01 02:06:50;;;;;;;42.42;26.17;;;7.50;99.90;;;;;;5016335;28;20172;-62
2024/01/01 02:09:16;;;;;;;43.95;25.90;;;7.40;99.90;;;;;;5019047;28;20128;-62
2024/01/01 02:11:42;;;;;;;40.58;25.35;;;7.40;99.90;;;;;;5035992;28;20556;-62
2024/01/01 02:14:10;;;;;;;42.75;25.33;;;7.30;99.90;;;;;;5036808;28;20037;-62
2024/01/01 02:16:36;;;;;;;36.60;24.17;;;7.30;99.90;;;;;;5036915;28;20174;-61
2024/01/01 02:19:03;;;;;;;38.42;24.77;;;7.30;99.90;;;;;;5036065;28;20533;-62
2024/01/01 02:21:31;;;;;;;38.65;23.50;;;7.30;99.90;;;;;;5036874;28;20122;-62
2024/01/01 02:23:59;;;;;;;37.83;24.27;;;7.20;99.90;;;;;;5025088;28;20041;-62
2024/01/01 02:26:25;;;;;;;34.88;22.90;;;7.20;99.90;;;;;;5016047;28;20124;-62
2024/01/01 02:28:51;;;;;;;34.72;21.50;;;7.20;99.90;;;;;;5016335;28;20132;-62
2024/01/01 02:31:16;;;;;;;31.75;22.38;;;7.10;99.90;;;;;;5016307;28;20168;-62
2024/01/01 02:33:42;;;;;;;34.33;22.17;;;7.10;99.90;;;;;;5032561;28;20103;-62
2024/01/01 02:36:08;;;;;;;29.50;18.52;;;7.10;99.90;;;;;;5017547;28;20118;-62
2024/01/01 02:38:34;;;;;;;32.03;19.77;;;7.10;99.90;;;;;;5016358;28;20064;-62
2024/01/01 02:41:00;;;;;;;34.10;20.70;;;7.00;99.90;;;;;;5016150;28;20128;-62
2024/01/01 02:43:28;;;;;;;32.95;19.27;;;7.10;99.90;;;;;;5016267;28;20045;-62
2024/01/01 02:45:54;;;;;;;29.70;19.20;;;7.00;99.90;;;;;;5016266;28;20042;-62
2024/01/01 02:48:20;;;;;;;32.65;17.90;;;7.10;99.90;;;;;;5023870;28;20065;-62
2024/01/01 02:50:46;;;;;;;31.20;17.90;;;7.00;99.90;;;;;;5053894;28;20612;-62
2024/01/01 02:53:12;;;;;;;25.48;16.50;;;7.00;99.90;;;;;;5033013;28;20115;-62
2024/01/01 02:55:40;;;;;;;27.27;17.23;;;7.00;99.90;;;;;;5015399;28;20079;-62
2024/01/01 02:58:06;;;;;;;26.17;15.30;;;7.00;99.90;;;;;;5016277;28;20041;-62
2024/01/01 03:00:31;;;;;;;23.98;14.10;;;7.00;99.90;;;;;;5015788;28;20059;-62
2024/01/01 03:02:59;;;;;;;29.30;14.35;;;7.00;99.90;;;;;;5010669;28;20483;-62
2024/01/01 03:05:27;;;;;;;23.75;14.43;;;7.00;99.90;;;;;;5013926;28;20080;-62
2024/01/01 03:07:52;;;;;;;24.20;13.80;;;7.00;99.90;;;;;;4995408;28;20091;-62
2024/01/01 03:10:20;;;;;;;24.20;14.07;;;7.00;99.90;;;;;;4995226;28;20037;-62
2024/01/01 03:12:46;;;;;;;21.25;13.25;;;7.00;99.90;;;;;;4996139;28;20045;-62
2024/01/01 03:15:13;;;;;;;20.45;11.88;;;7.00;99.90;;;;;;4995664;28;20041;-62
2024/01/01 03:17:40;;;;;;;20.27;11.70;;;7.00;99.90;;;;;;4999987;28;20061;-62
2024/01/01 03:20:06;;;;;;;19.20;11.85;;;7.00;99.90;;;;;;5015958;28;20115;-62
2024/01/01 03:22:33;;;;;;;22.98;12.30;;;7.00;99.90;;;;;;5032384;28;20037;-62
2024/01/01 03:25:01;;;;;;;24.80;12.93;;;7.00;99.90;;;;;;4998855;28;20549;-62
2024/01/01 03:27:27;;;;;;;27.05;11.68;;;7.00;99.90;;;;;;4995941;28;20061;-63
2024/01/01 03:29:53;;;;;;;18.17;10.90;;;7.00;99.90;;;;;;4994906;28;20549;-62
2024/01/01 03:32:19;;;;;;;22.85;11.15;;;7.00;99.90;;;;;;5013414;28;20041;-63
2024/01/01 03:34:45;;;;;;;19.90;10.43;;;7.00;99.90;;;;;;5011925;28;20049;-62
2024/01/01 03:37:11;;;;;;;21.73;10.63;;;7.00;99.90;;;;;;4995044;28;20048;-62
2024/01/01 03:39:39;;;;;;;15.43;9.05;;;7.00;99.90;;;;;;4995919;28;20045;-62
2024/01/01 03:42:05;;;;;;;18.92;10.32;;;7.00;99.90;;;;;;4996155;28;20402;-62
2024/01/01 03:44:31;;;;;;;15.55;9.18;;;7.00;99.90;;;;;;4978270;28;20042;-62
2024/01/01 03:46:58;;;;;;;24.80;9.18;;;7.00;99.90;;;;;;4995896;28;20042;-63
2024/01/01 03:49:24;;;;;;;18.10;8.65;;;7.00;99.90;;;;;;4995571;28;20058;-62
2024/01/01 03:51:49;;;;;;;15.43;7.57;;;7.00;99.90;;;;;;4994746;28;20131;-62
2024/01/01 03:54:16;;;;;;;16.77;8.23;;;7.00;99.90;;;;;;5006136;28;20126;-62
2024/01/01 03:56:43;;;;;;;20.58;8.27;;;7.00;99.90;;;;;;5014973;28;20124;-62
2024/01/01 03:59:09;;;;;;;13.65;7.20;;;7.00;99.90;;;;;;5014282;28;20068;-62
2024/01/01 04:01:35;;;;;;;14.82;7.68;;;7.00;99.90;;;;;;5015102;28;20091;-62
2024/01/01 04:04:03;;;;;;;13.85;6.68;;;7.00;99.90;;;;;;5026930;28;20057;-62
2024/01/01 04:06:31;;;;;;;17.98;7.28;;;7.10;99.90;;;;;;5014636;28;20092;-62
2024/01/01 04:08:58;;;;;;;12.48;7.35;;;7.00;99.90;;;;;;4998652;28;20045;-62
2024/01/01 04:11:24;;;;;;;11.80;5.70;;;7.00;99.90;;;;;;5014326;28;20095;-62
2024/01/01 04:13:51;;;;;;;11.63;6.40;;;7.00;99.90;;;;;;5026454;28;20486;-62
2024/01/01 04:16:17;;;;;;;12.88;6.30;;;7.00;99.90;;;;;;5034302;28;20051;-62
2024/01/01 04:18:43;;;;;;;11.55;5.60;;;7.00;99.90;;;;;;5033644;28;20084;-63
2024/01/01 04:21:09;;;;;;;12.07;5.63;;;7.00;99.90;;;;;;5034142;28;20095;-62
2024/01/01 04:23:34;;;;;;;12.02;5.40;;;7.00;99.90;;;;;;5017871;28;20041;-62
2024/01/01 04:26:02;;;;;;;14.10;5.22;;;7.00;99.90;;;;;;5033885;28;20052;-63
2024/01/01 04:28:27;;;;;;;10.88;4.68;;;7.00;99.90;;;;;;5034247;28;20053;-63
2024/01/01 04:30:54;;;;;;;12.63;4.90;;;7.00;99.90;;;;;;5033910;28;20053;-63
2024/01/01 04:33:20;;;;;;;11.07;4.68;;;7.00;99.90;;;;;;5020410;28;20045;-62
2024/01/01 04:35:46;;;;;;;11.95;5.68;;;7.00;99.90;;;;;;5014498;28;20375;-62
2024/01/01 04:38:12;;;;;;;10.30;4.95;;;7.00;99.90;;;;;;5030918;28;20052;-63
2024/01/01 04:40:39;;;;;;;11.15;4.30;;;7.00;99.90;;;;;;4997265;28;20037;-63
2024/01/01 04:43:04;;;;;;;12.80;5.88;;;7.00;99.90;;;;;;5036630;28;20045;-62
2024/01/01 04:45:35;;;;;;;11.77;4.70;;;6.90;99.90;;;;;;5050235;28;20098;-63
2024/01/01 04:48:02;;;;;;;9.48;4.85;;;6.90;99.90;;;;;;5033806;28;20457;-63
2024/01/01 04:50:31;;;;;;;8.70;4.82;;;6.90;99.90;;;;;;5017525;28;20486;-63
2024/01/01 04:52:58;;;;;;;8.02;4.85;;;6.90;99.90;;;;;;5034027;28;20039;-62
2024/01/01 04:55:25;;;;;;;9.73;4.43;;;6.90;99.90;;;;;;5033075;28;20041;-62
2024/01/01 04:57:51;;;;;;;11.32;5.65;;;6.90;99.90;;;;;;5033870;28;20044;-62
2024/01/01 05:00:18;;;;;;;9.82;5.82;;;6.90;99.90;;;;;;5017535;28;20040;-62
2024/01/01 05:02:43;;;;;;;13.23;5.65;;;6.90;99.90;;;;;;5024549;28;20058;-62
2024/01/01 05:05:10;;;;;;;11.90;7.32;;;6.90;99.90;;;;;;5014018;28;20045;-62
2024/01/01 05:07:38;;;;;;;22.98;13.50;;;6.90;99.90;;;;;;5031036;28;20088;-62
2024/01/01 05:10:06;;;;;;;34.45;29.55;;;6.90;99.90;;;;;;5014248;28;20117;-62
2024/01/01 05:12:32;;;;;;;43.35;33.22;;;6.90;99.90;;;;;;5014598;28;20489;-62
2024/01/01 05:14:59;;;;;;;20.55;14.95;;;6.90;99.90;;;;;;5033222;28;20041;-62
2024/01/01 05:17:27;;;;;;;7.78;4.85;;;6.80;99.90;;;;;;5033843;28;20048;-62
2024/01/01 05:19:53;;;;;;;8.25;4.20;;;6.90;99.90;;;;;;5025982;28;20048;-62
2024/01/01 05:22:19;;;;;;;9.55;3.92;;;6.90;99.90;;;;;;5013027;28;20049;-62
2024/01/01 05:24:46;;;;;;;6.68;2.50;;;6.80;99.90;;;;;;5014455;28;20394;-62
2024/01/01 05:27:12;;;;;;;9.68;4.18;;;6.90;99.90;;;;;;5014151;28;20430;-62
2024/01/01 05:29:42;;;;;;;9.80;4.82;;;6.90;99.90;;;;;;5013043;28;20376;-62
2024/01/01 05:32:09;;;;;;;11.88;6.95;;;6.90;99.90;;;;;;5017313;28;20045;-62
2024/01/01 05:34:36;;;;;;;15.02;6.60;;;6.90;99.90;;;;;;5036322;28;20533;-62
2024/01/01 05:37:05;;;;;;;13.98;6.55;;;6.90;99.90;;;;;;5001129;28;20068;-63
2024/01/01 05:39:32;;;;;;;6.53;3.03;;;6.80;99.90;;;;;;5017086;28;20848;-63
2024/01/01 05:41:59;;;;;;;6.38;2.28;;;6.90;99.90;;;;;;5017658;28;20049;-63
2024/01/01 05:44:27;;;;;;;6.65;2.20;;;6.80;99.90;;;;;;5033166;28;20072;-63
2024/01/01 05:46:53;;;;;;;7.40;3.08;;;6.80;99.90;;;;;;5037701;28;20448;-63
2024/01/01 05:49:21;;;;;;;7.03;3.88;;;6.90;99.90;;;;;;5037107;28;20044;-63
2024/01/01 05:51:48;;;;;;;10.07;6.70;;;6.80;99.90;;;;;;5036421;28;20048;-63
2024/01/01 05:54:15;;;;;;;9.15;3.70;;;6.90;99.90;;;;;;5036914;28;20071;-63
2024/01/01 05:56:42;;;;;;;7.68;4.22;;;6.80;99.90;;;;;;5036388;28;20051;-63
2024/01/01 05:59:08;;;;;;;9.35;4.13;;;6.90;99.90;;;;;;5036983;28;20502;-62
2024/01/01 06:01:34;;;;;;;8.60;3.22;;;7.00;99.90;;;;;;5036954;28;20055;-63
2024/01/01 06:04:02;;;;;;;11.00;4.68;;;7.00;99.90;;;;;;5035308;28;20060;-62
2024/01/01 06:06:28;;;;;;;10.45;2.90;;;7.00;99.90;;;;;;5036731;28;20045;-63
2024/01/01 06:08:53;;;;;;;8.15;2.85;;;7.00;99.90;;;;;;5036818;28;20398;-63
2024/01/01 06:11:21;;;;;;;10.38;3.20;;;7.10;99.90;;;;;;5052863;28;20053;-64
2024/01/01 06:13:47;;;;;;;15.15;3.63;;;7.10;99.90;;;;;;5036313;28;20124;-63
2024/01/01 06:16:14;;;;;;;7.75;2.53;;;7.10;99.90;;;;;;5036758;28;20041;-63
2024/01/01 06:18:41;;;;;;;11.27;3.42;;;7.10;99.90;;;;;;5035817;28;20119;-63
2024/01/01 06:21:08;;;;;;;8.55;3.13;;;7.10;99.90;;;;;;5036983;28;20048;-63
2024/01/01 06:23:35;;;;;;;7.50;2.65;;;7.10;99.90;;;;;;5031811;28;20053;-63
2024/01/01 06:26:01;;;;;;;8.60;2.60;;;7.10;99.90;;;;;;5016297;28;20052;-63
2024/01/01 06:28:29;;;;;;;11.90;3.75;;;7.10;99.90;;;;;;5016910;28;20449;-63
2024/01/01 06:30:57;;;;;;;9.20;4.70;;;7.10;99.90;;;;;;5016786;28;20095;-62
2024/01/01 06:33:23;;;;;;;9.07;3.05;;;7.10;99.90;;;;;;4999466;28;20115;-63
2024/01/01 06:35:50;;;;;;;9.15;2.95;;;7.20;99.90;;;;;;5034279;28;20830;-63
2024/01/01 06:38:15;;;;;;;7.75;2.60;;;7.20;99.90;;;;;;5016452;28;20072;-63
2024/01/01 06:40:43;;;;;;;8.15;3.13;;;7.20;99.90;;;;;;5015673;28;20060;-62
2024/01/01 06:43:09;;;;;;;8.20;1.88;;;7.20;99.90;;;;;;5016443;28;20048;-62
2024/01/01 06:45:36;;;;;;;10.20;2.33;;;7.20;99.90;;;;;;5016236;28;20046;-63
2024/01/01 06:48:02;;;;;;;7.22;1.88;;;7.20;99.90;;;;;;5015958;28;20398;-63
2024/01/01 06:50:30;;;;;;;8.02;1.88;;;7.10;99.90;;;;;;5016103;28;20046;-63
2024/01/01 06:52:57;;;;;;;4.28;1.67;;;7.10;99.90;;;;;;5015566;28;20042;-63
2024/01/01 06:55:24;;;;;;;5.13;1.55;;;7.00;99.90;;;;;;5052397;28;20041;-63
2024/01/01 06:57:51;;;;;;;6.18;1.80;;;6.90;99.90;;;;;;5036279;28;20068;-63
2024/01/01 07:00:18;;;;;;;3.00;0.82;;;6.90;99.90;;;;;;5035286;28;20817;-63
2024/01/01 07:02:44;;;;;;;4.20;0.90;;;6.80;99.90;;;;;;5035131;28;20564;-63
2024/01/01 07:05:10;;;;;;;4.28;0.70;;;6.80;99.90;;;;;;5052449;28;20045;-63
2024/01/01 07:07:36;;;;;;;4.00;0.98;;;6.70;99.90;;;;;;5034656;28;20072;-63
2024/01/01 07:10:02;;;;;;;3.38;0.73;;;6.70;99.90;;;;;;5036008;28;20049;-63
2024/01/01 07:12:28;;;;;;;5.07;0.77;;;6.60;99.90;;;;;;5035686;28;20478;-63
2024/01/01 07:14:54;;;;;;;3.33;0.80;;;6.60;99.90;;;;;;5034769;28;20052;-63
2024/01/01 07:17:21;;;;;;;1.92;0.65;;;6.60;99.90;;;;;;5035883;28;20083;-64
2024/01/01 07:19:47;;;;;;;1.63;0.60;;;6.50;99.90;;;;;;5033422;28;20068;-63
2024/01/01 07:22:15;;;;;;;4.18;0.75;;;6.50;99.90;;;;;;5034662;28;20049;-63
2024/01/01 07:24:41;;;;;;;4.65;0.90;;;6.50;99.90;;;;;;5035744;28;20049;-63
2024/01/01 07:27:08;;;;;;;3.92;0.85;;;6.60;99.90;;;;;;5035912;28;20103;-63
2024/01/01 07:29:35;;;;;;;6.45;1.13;;;6.50;99.90;;;;;;5034292;28;20084;-63
2024/01/01 07:32:01;;;;;;;7.35;1.65;;;6.50;99.90;;;;;;5033724;28;20052;-63
2024/01/01 07:34:29;;;;;;;5.13;0.80;;;6.50;99.90;;;;;;5033102;28;20041;-63
2024/01/01 07:36:57;;;;;;;4.90;1.27;;;6.50;99.90;;;;;;5015312;28;20041;-63
2024/01/01 07:39:23;;;;;;;4.45;0.98;;;6.50;99.90;;;;;;5015642;28;20072;-63
2024/01/01 07:41:49;;;;;;;4.93;1.35;;;6.60;99.90;;;;;;5015134;28;20041;-64
2024/01/01 07:44:17;;;;;;;6.93;1.35;;;6.50;99.90;;;;;;5032151;28;20120;-63
2024/01/01 07:46:44;;;;;;;4.20;1.40;;;6.60;99.90;;;;;;5015462;28;20145;-63
2024/01/01 07:49:11;;;;;;;4.72;1.70;;;6.60;99.90;;;;;;5019712;28;20433;-63
2024/01/01 07:51:37;;;;;;;6.05;1.70;;;6.60;99.90;;;;;;5035038;28;20041;-63
2024/01/01 07:54:04;;;;;;;5.88;1.33;;;6.60;99.90;;;;;;5035488;28;20529;-63
2024/01/01 07:56:32;;;;;;;4.63;1.70;;;6.70;99.90;;;;;;5033274;28;20037;-63
2024/01/01 07:58:59;;;;;;;4.60;1.30;;;6.60;99.90;;;;;;5035028;28;20071;-63
2024/01/01 08:01:26;;;;;;;10.25;1.83;;;6.70;99.90;;;;;;5034647;28;20051;-64
2024/01/01 08:03:52;;;;;;;8.88;1.90;;;6.70;99.90;;;;;;5032033;28;20060;-64
2024/01/01 08:06:18;;;;;;;6.35;1.90;;;6.70;99.90;;;;;;5029401;28;20393;-64
2024/01/01 08:08:44;;;;;;;8.40;1.88;;;6.80;99.90;;;;;;5015013;28;20051;-64
2024/01/01 08:11:10;;;;;;;5.20;1.40;;;6.70;99.90;;;;;;5038315;28;20481;-64
2024/01/01 08:13:39;;;;;;;9.32;2.15;;;6.80;99.90;;;;;;5034642;28;20047;-64
2024/01/01 08:16:06;;;;;;;17.80;2.72;;;6.80;99.90;;;;;;5023682;28;20041;-64
2024/01/01 08:18:33;;;;;;;9.68;2.50;;;6.80;99.90;;;;;;5013692;28;20045;-64
2024/01/01 08:21:01;;;;;;;7.78;2.05;;;6.80;99.90;;;;;;5023665;28;20045;-64
2024/01/01 08:23:27;;;;;;;12.82;2.55;;;6.80;99.90;;;;;;5032931;28;20052;-64
2024/01/01 08:25:52;;;;;;;4.88;1.70;;;6.90;99.90;;;;;;5042072;28;20075;-63
2024/01/01 08:28:19;;;;;;;7.25;2.17;;;6.90;99.90;;;;;;5034389;28;20390;-64
2024/01/01 08:30:45;;;;;;;5.38;1.83;;;6.90;99.90;;;;;;5018203;28;20121;-64
2024/01/01 08:33:13;;;;;;;7.50;1.67;;;6.90;99.90;;;;;;5030384;28;20076;-64
2024/01/01 08:35:39;;;;;;;14.20;2.40;;;6.90;99.90;;;;;;5029515;28;20045;-63
2024/01/01 08:38:05;;;;;;;49.63;25.02;;;6.90;99.90;;;;;;5034316;28;20036;-63
2024/01/01 08:40:32;;;;;;;16.83;8.55;;;7.00;99.90;;;;;;5033424;28;20043;-63
2024/01/01 08:42:58;;;;;;;16.65;7.68;;;7.00;99.90;;;;;;5032903;28;20040;-63
2024/01/01 08:45:24;;;;;;;21.00;9.30;;;6.90;99.90;;;;;;5026099;28;20041;-63
2024/01/01 08:47:51;;;;;;;10.98;3.40;;;7.00;99.90;;;;;;5012788;28;20063;-63
2024/01/01 08:50:17;;;;;;;5.78;2.10;;;7.00;99.90;;;;;;5022916;28;20044;-63
2024/01/01 08:52:44;;;;;;;10.43;2.47;;;6.90;99.90;;;;;;5028859;28;20048;-63
2024/01/01 08:55:10;;;;;;;9.77;1.65;;;6.90;99.90;;;;;;5022918;28;20690;-63
2024/01/01 08:57:36;;;;;;;4.18;1.25;;;6.90;99.90;;;;;;5030312;28;20040;-63
2024/01/01 09:00:06;;;;;;;6.30;2.15;;;6.90;99.90;;;;;;5030122;28;20040;-63
2024/01/01 09:02:33;;;;;;;5.30;1.65;;;6.80;99.90;;;;;;5026125;28;20049;-63
2024/01/01 09:05:00;;;;;;;11.27;2.30;;;6.90;99.90;;;;;;5011796;28;20061;-63
2024/01/01 09:07:27;;;;;;;5.80;1.85;;;6.90;99.90;;;;;;5012669;28;20421;-64
2024/01/01 09:09:53;;;;;;;9.40;2.67;;;6.80;99.90;;;;;;5026136;28;20049;-63
2024/01/01 09:12:19;;;;;;;8.35;1.83;;;6.90;99.90;;;;;;5050671;28;20090;-63
2024/01/01 09:14:47;;;;;;;8.50;2.42;;;6.90;99.90;;;;;;5034570;28;20172;-63
2024/01/01 09:17:14;;;;;;;176.55;93.60;;;7.00;99.90;;;;;;5035160;28;20082;-63
2024/01/01 09:19:40;;;;;;;22.13;11.60;;;7.00;99.90;;;;;;5035347;28;20124;-63
2024/01/01 09:22:08;;;;;;;15.20;4.60;;;7.00;99.90;;;;;;5030327;28;20241;-63
2024/01/01 09:24:33;;;;;;;10.52;4.07;;;7.00;99.90;;;;;;5022043;28;20440;-64
2024/01/01 09:27:01;;;;;;;8.77;3.10;;;7.00;99.90;;;;;;5028749;28;20074;-64
2024/01/01 09:29:27;;;;;;;10.60;3.08;;;7.00;99.90;;;;;;5032187;28;20083;-63
2024/01/01 09:31:53;;;;;;;10.93;3.70;;;7.10;99.90;;;;;;5014621;28;20084;-64
2024/01/01 09:34:20;;;;;;;6.60;2.50;;;7.10;99.90;;;;;;5015014;28;20049;-63
2024/01/01 09:36:46;;;;;;;9.88;3.38;;;7.20;99.90;;;;;;5015045;28;20398;-63
2024/01/01 09:39:13;;;;;;;9.40;2.53;;;7.20;99.90;;;;;;5033724;28;20075;-63
2024/01/01 09:41:38;;;;;;;10.93;4.13;;;7.20;99.90;;;;;;5034600;28;20103;-63
2024/01/01 09:44:06;;;;;;;12.95;3.22;;;7.20;99.90;;;;;;5050553;28;20482;-63
2024/01/01 09:46:35;;;;;;;10.68;3.13;;;7.20;99.90;;;;;;5032957;28;20041;-63
2024/01/01 09:49:04;;;;;;;13.80;4.88;;;7.30;99.90;;;;;;5034083;28;20060;-63
2024/01/01 09:51:31;;;;;;;11.25;3.03;;;7.30;99.90;;;;;;5017853;28;20075;-63
2024/01/01 09:54:01;;;;;;;10.60;3.03;;;7.30;99.90;;;;;;5031159;28;20159;-63
2024/01/01 09:56:26;;;;;;;10.65;2.47;;;7.40;99.90;;;;;;5033373;28;20045;-63
2024/01/01 09:58:53;;;;;;;10.70;2.55;;;7.40;99.90;;;;;;5027952;28;20056;-64
2024/01/01 10:01:22;;;;;;;17.67;4.40;;;7.40;99.90;;;;;;5014836;28;20499;-64
2024/01/01 10:04:03;;;;;;;13.60;4.00;;;7.40;99.90;;;;;;5014233;28;20057;-64
2024/01/01 10:06:33;;;;;;;12.85;4.82;;;7.60;99.90;;;;;;5027505;28;20439;-64
2024/01/01 10:09:11;;;;;;;15.65;7.20;;;7.50;99.90;;;;;;5033985;28;20057;-64
2024/01/01 10:11:41;;;;;;;13.75;4.13;;;7.60;99.90;;;;;;5032988;28;20040;-64
2024/01/01 10:14:07;;;;;;;18.65;3.53;;;7.70;99.90;;;;;;5033905;28;20077;-65
2024/01/01 10:16:34;;;;;;;13.05;3.92;;;7.70;99.90;;;;;;5017504;28;20094;-64
2024/01/01 10:19:02;;;;;;;9.00;3.85;;;7.80;99.90;;;;;;5015433;28;20049;-64
2024/01/01 10:21:34;;;;;;;9.70;3.63;;;7.70;99.90;;;;;;5026234;28;20060;-64
2024/01/01 10:24:12;;;;;;;13.65;3.47;;;7.80;99.90;;;;;;5030512;28;20126;-64
2024/01/01 10:26:43;;;;;;;17.67;4.80;;;7.80;99.90;;;;;;5032819;28;20048;-64
2024/01/01 10:29:12;;;;;;;13.00;3.88;;;7.80;99.90;;;;;;5033064;28;20131;-64
2024/01/01 10:31:44;;;;;;;9.38;3.10;;;7.80;99.90;;;;;;5028466;28;20040;-63
2024/01/01 10:34:13;;;;;;;11.32;3.50;;;7.90;99.90;;;;;;5030407;28;20640;-63
2024/01/01 10:36:41;;;;;;;12.77;4.15;;;7.90;99.90;;;;;;5034038;28;20501;-64
2024/01/01 10:39:12;;;;;;;12.23;3.38;;;7.90;99.90;;;;;;5031721;28;20045;-64
2024/01/01 10:41:39;;;;;;;12.63;3.65;;;7.90;99.90;;;;;;5033404;28;20048;-64
2024/01/01 10:44:09;;;;;;;15.88;3.65;;;7.90;99.90;;;;;;5033964;28;20045;-64
2024/01/01 10:46:49;;;;;;;16.77;6.35;;;7.90;99.90;;;;;;5033097;28;20497;-64
2024/01/01 10:49:23;;;;;;;15.88;4.90;;;7.90;99.90;;;;;;5030817;28;20581;-64
2024/01/01 10:52:26;;;;;;;11.25;3.00;;;8.00;99.90;;;;;;5017024;28;20033;-64
2024/01/01 10:55:23;;;;;;;16.38;5.13;;;7.90;99.90;;;;;;5023994;28;20041;-64
2024/01/01 10:58:14;;;;;;;12.40;2.65;;;8.00;99.90;;;;;;5022882;28;20032;-64
2024/01/01 11:00:49;;;;;;;10.98;3.13;;;8.00;99.90;;;;;;5029378;28;20045;-64
2024/01/01 11:03:16;;;;;;;19.92;4.50;;;8.00;99.90;;;;;;5020689;28;20045;-64
2024/01/01 11:05:42;;;;;;;8.80;3.30;;;8.10;99.90;;;;;;5023664;28;20572;-64
2024/01/01 11:08:08;;;;;;;14.52;4.35;;;8.10;99.90;;;;;;5015485;28;20045;-64
2024/01/01 11:10:39;;;;;;;11.70;3.63;;;8.10;99.90;;;;;;5025541;28;20053;-65
2024/01/01 11:13:08;;;;;;;13.80;3.35;;;8.10;99.90;;;;;;5027434;28;20502;-65
2024/01/01 11:15:48;;;;;;;12.43;3.55;;;8.20;99.90;;;;;;5026732;28;20380;-64
2024/01/01 11:18:15;;;;;;;15.60;2.65;;;8.20;99.90;;;;;;5021549;28;20045;-64
2024/01/01 11:20:52;;;;;;;9.55;2.75;;;8.10;99.90;;;;;;5023311;28;20037;-65
2024/01/01 11:23:41;;;;;;;16.60;3.10;;;8.10;99.90;;;;;;5019230;28;20036;-65
2024/01/01 11:26:27;;;;;;;19.25;3.78;;;8.10;99.90;;;;;;5023567;28;20045;-64
2024/01/01 11:28:55;;;;;;;9.32;2.58;;;8.10;99.90;;;;;;5027997;28;20040;-64
2024/01/01 11:31:22;;;;;;;10.75;2.35;;;8.00;99.90;;;;;;5029140;28;20045;-65
2024/01/01 11:34:04;;;;;;;11.73;3.80;;;8.00;99.90;;;;;;5026438;28;20045;-65
2024/01/01 11:36:32;;;;;;;14.82;3.75;;;8.00;99.90;;;;;;5019925;28;20060;-65
2024/01/01 11:39:00;;;;;;;11.88;2.22;;;8.00;99.90;;;;;;5012629;28;20056;-64
2024/01/01 11:41:32;;;;;;;10.65;3.40;;;8.00;99.90;;;;;;5021581;28;20568;-64
2024/01/01 11:44:13;;;;;;;11.70;2.90;;;8.00;99.90;;;;;;5032237;28;20098;-64
2024/01/01 11:46:41;;;;;;;8.30;2.38;;;8.10;99.90;;;;;;5028347;28;20049;-65
2024/01/01 11:49:07;;;;;;;12.30;2.67;;;8.00;99.90;;;;;;5032100;28;20044;-64
2024/01/01 11:51:55;;;;;;;14.63;2.80;;;8.00;99.90;;;;;;5032299;28;20194;-64
2024/01/01 11:54:21;;;;;;;10.13;2.67;;;8.10;99.90;;;;;;5024096;28;20045;-65
2024/01/01 11:56:49;;;;;;;12.10;2.30;;;8.10;99.90;;;;;;5021701;28;20047;-65
2024/01/01 11:59:16;;;;;;;15.00;2.78;;;8.10;99.90;;;;;;5017437;28;20201;-64
2024/01/01 12:01:44;;;;;;;13.65;3.28;;;8.10;99.90;;;;;;5028511;28;20045;-64
2024/01/01 12:04:11;;;;;;;13.65;3.30;;;8.10;99.90;;;;;;5000242;28;20054;-65
2024/01/01 12:06:37;;;;;;;9.93;3.22;;;8.10;99.90;;;;;;5005990;28;20041;-64
2024/01/01 12:09:11;;;;;;;12.10;2.97;;;8.10;99.90;;;;;;5000041;28;20042;-64
2024/01/01 12:11:43;;;;;;;10.88;2.90;;;8.10;99.90;;;;;;5011413;28;20091;-64
2024/01/01 12:14:09;;;;;;;9.27;2.97;;;8.10;99.90;;;;;;4992137;28;20092;-64
2024/01/01 12:16:36;;;;;;;14.43;2.72;;;8.10;99.90;;;;;;4991726;28;20049;-64
2024/01/01 12:19:12;;;;;;;7.53;2.20;;;8.10;99.90;;;;;;4976540;28;20145;-64
2024/01/01 12:21:45;;;;;;;15.07;2.90;;;8.00;99.90;;;;;;4992361;28;20060;-64
2024/01/01 12:24:15;;;;;;;11.43;2.97;;;8.10;99.90;;;;;;4994276;28;20041;-64
2024/01/01 12:26:43;;;;;;;14.75;3.85;;;8.10;99.90;;;;;;5008857;28;20047;-63
2024/01/01 12:29:16;;;;;;;14.32;4.40;;;8.00;99.90;;;;;;4992357;28;20077;-63
2024/01/01 12:31:44;;;;;;;9.40;2.83;;;8.10;99.90;;;;;;4998773;28;20041;-64
2024/01/01 12:34:18;;;;;;;12.65;3.17;;;8.10;99.90;;;;;;5002065;28;20132;-65
2024/01/01 12:36:47;;;;;;;9.25;2.70;;;8.10;99.90;;;;;;5026667;28;20099;-64
2024/01/01 12:39:17;;;;;;;16.30;3.90;;;8.00;99.90;;;;;;5003798;28;20049;-64
2024/01/01 12:41:44;;;;;;;11.65;3.50;;;8.00;99.90;;;;;;4991915;28;20089;-64
2024/01/01 12:44:10;;;;;;;13.25;2.67;;;8.00;99.90;;;;;;4994613;28;20046;-63
2024/01/01 12:46:35;;;;;;;10.48;4.18;;;8.00;99.90;;;;;;4996982;28;20052;-64
2024/01/01 12:49:03;;;;;;;13.25;2.88;;;8.00;99.90;;;;;;4995816;28;20077;-64
2024/01/01 12:51:31;;;;;;;11.63;3.90;;;8.00;99.90;;;;;;5011250;28;20049;-64